Aérodrome :
LOGIN :

S'inscrire | Disclaimer

   EN    FR    IT 

 










Légende :    VFR   VFR Marginal   IFR   IFR Intensif   IFR Très Intensif
Visi : 
Plafond : 
>= 8 km
>= 3000ft
5 à 8 km
1000 à 3000 ft
1500m à 5 km
500 à 1000 ft
800 à 1500m
200 à 500 ft
< 800m
< 200 ft
Symboles :   Orages  Brouillard  Fortes neiges  Fortes précipitations  Vent > 20 kt
SIGMETs :   Divers  Orages  Givrage  Turbulence  Onde Orograph.  Cendres Volcan.







- Altitude de l'aérodrome : 1910 ft
- Code IATA : RDZ
- Voir les cartes d'approche


LFCR - Rodez

DERNIER METAR :
  • 190400Z AUTO 00000KT 8000 NSC M04/M04 Q1022 NOSIG

METARs EXPIRÉS :
  • 190330Z AUTO 00000KT 8000 NSC M04/M04 Q1022 NOSIG
  • 190300Z AUTO 17002KT 9000 NSC M04/M04 Q1022 NOSIG
  • 190230Z AUTO 00000KT 7000 NSC M05/M05 Q1022 NOSIG
  • 190200Z AUTO 00000KT 8000 1600 R31/1200D NSC M05/M05 Q1022 NOSIG

TAF TAF LFCR
Valide du 19 à 00h jusqu'au 20 à 00h UTC


182300Z 1900/1924 30004KT CAVOK
FM191200 31010KT CAVOK
BECMG 1917/1919 4000 BR BKN008
BECMG 1920/1922 1200 BCFG OVC001
PROB40 1922/1924 0200 FG VV///
Pas de NOTAMs connus pour ce terrain.



MET'MAP, la Météo Aéronautique d'un coup d'oeil ! - Copyright ORBIFLY Décembre 2007 - Disclaimer

ORBIFLY MET'MAP TEAM :

Programmation & Développement : Alexandra Zaïnal
Conception & Développement : Baudouin d'Aumeries
Co-Programmation & Développement : Marc-Olivier Méhu
Soutien technique & logistique : Manuel Goepfert

Contact : metmap@orbifly.com




SOURCES & CREDITS :

   NOAA